createdAt,value
2023-04-14T00:01:17.017Z,6.53
2023-04-14T00:03:44.057Z,6.51
2023-04-14T00:06:10.693Z,6.48
2023-04-14T00:08:37.107Z,6.47
2023-04-14T00:11:03.816Z,6.46
2023-04-14T00:13:30.304Z,6.45
2023-04-14T00:15:56.993Z,6.43
2023-04-14T00:18:23.969Z,6.40
2023-04-14T00:20:50.465Z,6.37
2023-04-14T00:23:18.366Z,6.33
2023-04-14T00:25:44.917Z,6.27
2023-04-14T00:28:11.382Z,6.26
2023-04-14T00:30:37.997Z,6.22
2023-04-14T00:33:04.454Z,6.18
2023-04-14T00:35:31.922Z,6.15
2023-04-14T00:37:58.637Z,6.10
2023-04-14T00:40:25.308Z,6.06
2023-04-14T00:42:52.029Z,6.00
2023-04-14T00:45:18.505Z,5.94
2023-04-14T00:47:47.215Z,5.90
2023-04-14T00:50:20.875Z,5.85
2023-04-14T00:52:49.714Z,5.79
2023-04-14T00:55:19.017Z,5.75
2023-04-14T00:57:46.302Z,5.72
2023-04-14T01:00:14.123Z,5.70
2023-04-14T01:02:40.845Z,5.66
2023-04-14T01:05:08.082Z,5.64
2023-04-14T01:07:35.010Z,5.63
2023-04-14T01:10:01.649Z,5.63
2023-04-14T01:12:39.081Z,5.61
2023-04-14T01:15:19.058Z,5.60
2023-04-14T01:17:49.833Z,5.57
2023-04-14T01:20:24.518Z,5.54
2023-04-14T01:22:59.794Z,5.52
2023-04-14T01:25:52.714Z,5.48
2023-04-14T01:28:38.523Z,5.43
2023-04-14T01:31:23.828Z,5.41
2023-04-14T01:33:57.629Z,5.36
2023-04-14T01:36:31.708Z,5.36
2023-04-14T01:39:00.351Z,5.35
2023-04-14T01:41:28.459Z,5.28
2023-04-14T01:43:56.078Z,5.27
2023-04-14T01:46:22.468Z,5.27
2023-04-14T01:48:50.832Z,5.22
2023-04-14T01:51:19.781Z,5.24
2023-04-14T01:53:50.394Z,5.25
2023-04-14T01:56:18.610Z,5.24
2023-04-14T01:58:47.185Z,5.25
2023-04-14T02:01:14.670Z,5.21
2023-04-14T02:03:42.501Z,5.19
2023-04-14T02:06:12.410Z,5.16
2023-04-14T02:08:41.726Z,5.19
2023-04-14T02:11:09.944Z,5.18
2023-04-14T02:13:39.829Z,5.18
2023-04-14T02:16:10.471Z,5.18
2023-04-14T02:18:39.102Z,5.21
2023-04-14T02:21:05.937Z,5.21
2023-04-14T02:23:32.502Z,5.22
2023-04-14T02:26:05.029Z,5.20
2023-04-14T02:28:37.323Z,5.18
2023-04-14T02:31:09.427Z,5.16
2023-04-14T02:33:39.369Z,5.21
2023-04-14T02:36:19.010Z,5.26
2023-04-14T02:38:52.302Z,5.29
2023-04-14T02:41:32.918Z,5.29
2023-04-14T02:44:10.854Z,5.30
2023-04-14T02:46:41.680Z,5.31
2023-04-14T02:49:13.024Z,5.32
2023-04-14T02:51:41.274Z,5.35
2023-04-14T02:54:08.506Z,5.37
2023-04-14T02:56:35.545Z,5.37
2023-04-14T02:59:02.974Z,5.32
2023-04-14T03:01:33.091Z,5.29
2023-04-14T03:04:00.513Z,5.28
2023-04-14T03:06:27.778Z,5.26
2023-04-14T03:08:55.136Z,5.25
2023-04-14T03:11:22.849Z,5.22
2023-04-14T03:13:53.009Z,5.22
2023-04-14T03:16:21.605Z,5.21
2023-04-14T03:18:50.429Z,5.19
2023-04-14T03:21:19.177Z,5.16
2023-04-14T03:23:48.393Z,5.14
2023-04-14T03:26:19.544Z,5.15
2023-04-14T03:28:48.365Z,5.13
2023-04-14T03:31:18.772Z,5.09
2023-04-14T03:33:47.054Z,5.07
2023-04-14T03:36:16.136Z,5.08
2023-04-14T03:38:45.289Z,5.07
2023-04-14T03:41:11.997Z,5.06
2023-04-14T03:43:40.237Z,5.02
2023-04-14T03:46:07.028Z,4.99
2023-04-14T03:48:36.792Z,5.01
2023-04-14T03:51:06.040Z,5.04
2023-04-14T03:53:35.032Z,5.06
2023-04-14T03:56:03.476Z,5.09
2023-04-14T03:58:31.245Z,5.09
2023-04-14T04:00:58.154Z,5.11
2023-04-14T04:03:27.493Z,5.10
2023-04-14T04:05:54.502Z,5.09
2023-04-14T04:08:22.874Z,5.06
2023-04-14T04:10:49.986Z,5.04
2023-04-14T04:13:17.593Z,5.00
2023-04-14T04:15:46.321Z,4.98
2023-04-14T04:18:16.635Z,4.93
2023-04-14T04:20:44.233Z,4.88
2023-04-14T04:23:12.292Z,4.82
2023-04-14T04:25:40.839Z,4.78
2023-04-14T04:28:07.739Z,4.75
2023-04-14T04:30:39.353Z,4.73
2023-04-14T04:33:06.986Z,4.73
2023-04-14T04:35:35.741Z,4.68
2023-04-14T04:38:02.241Z,4.63
2023-04-14T04:40:28.714Z,4.61
2023-04-14T04:42:55.107Z,4.59
2023-04-14T04:45:44.048Z,4.60
2023-04-14T04:48:10.608Z,4.58
2023-04-14T04:50:37.063Z,4.57
2023-04-14T04:53:03.424Z,4.58
2023-04-14T04:55:29.813Z,4.61
2023-04-14T04:57:56.169Z,4.61
2023-04-14T05:00:23.035Z,4.61
2023-04-14T05:02:49.602Z,4.61
2023-04-14T05:05:16.179Z,4.64
2023-04-14T05:07:43.294Z,4.64
2023-04-14T05:10:09.863Z,4.64
2023-04-14T05:12:36.333Z,4.62
2023-04-14T05:15:03.133Z,4.62
2023-04-14T05:17:29.603Z,4.62
2023-04-14T05:19:57.444Z,4.64
2023-04-14T05:22:23.861Z,4.68
2023-04-14T05:24:51.070Z,4.74
2023-04-14T05:27:17.522Z,4.82
2023-04-14T05:29:43.902Z,4.92
2023-04-14T05:32:11.523Z,4.96
2023-04-14T05:34:37.903Z,5.01
2023-04-14T05:37:04.321Z,5.08
2023-04-14T05:39:30.751Z,5.17
2023-04-14T05:41:57.103Z,5.27
2023-04-14T05:44:24.292Z,5.39
2023-04-14T05:46:51.140Z,5.47
2023-04-14T05:49:17.643Z,5.51
2023-04-14T05:51:44.192Z,5.56
2023-04-14T05:54:12.053Z,5.58
2023-04-14T05:56:39.041Z,5.53
2023-04-14T05:59:05.887Z,5.49
2023-04-14T06:01:32.342Z,5.55
2023-04-14T06:03:59.116Z,5.57
2023-04-14T06:06:26.290Z,5.64
2023-04-14T06:08:52.729Z,5.76
2023-04-14T06:11:19.113Z,5.98
2023-04-14T06:13:45.693Z,6.15
2023-04-14T06:16:12.210Z,6.34
2023-04-14T06:18:38.874Z,6.50
2023-04-14T06:21:05.326Z,6.65
2023-04-14T06:23:32.299Z,6.82
2023-04-14T06:25:58.858Z,7.01
2023-04-14T06:28:26.341Z,7.17
2023-04-14T06:30:52.857Z,7.42
2023-04-14T06:33:19.509Z,7.61
2023-04-14T06:35:45.955Z,7.77
2023-04-14T06:38:12.359Z,7.87
2023-04-14T06:40:38.863Z,7.97
2023-04-14T06:43:06.370Z,7.97
2023-04-14T06:45:32.746Z,8.06
2023-04-14T06:48:01.140Z,8.11
2023-04-14T06:50:27.659Z,8.16
2023-04-14T06:52:54.104Z,8.28
2023-04-14T06:55:21.675Z,8.27
2023-04-14T06:57:48.037Z,8.23
2023-04-14T07:00:14.757Z,8.18
2023-04-14T07:02:41.280Z,8.17
2023-04-14T07:05:08.265Z,8.25
2023-04-14T07:07:40.073Z,8.10
2023-04-14T07:10:07.134Z,8.05
2023-04-14T07:12:33.711Z,8.22
2023-04-14T07:15:00.145Z,8.49
2023-04-14T07:17:26.708Z,8.62
2023-04-14T07:19:53.227Z,8.59
2023-04-14T07:22:19.604Z,8.63
2023-04-14T07:24:45.954Z,8.70
2023-04-14T07:27:15.892Z,8.92
2023-04-14T07:29:42.582Z,9.04
2023-04-14T07:32:08.980Z,9.08
2023-04-14T07:34:35.584Z,9.21
2023-04-14T07:37:02.094Z,9.24
2023-04-14T07:39:28.537Z,9.38
2023-04-14T07:41:57.724Z,9.50
2023-04-14T07:44:24.319Z,9.43
2023-04-14T07:46:50.824Z,9.48
2023-04-14T07:49:17.270Z,9.64
2023-04-14T07:51:43.871Z,9.85
2023-04-14T07:54:11.281Z,10.02
2023-04-14T07:56:37.698Z,9.93
2023-04-14T07:59:04.133Z,9.80
2023-04-14T08:01:30.510Z,9.76
2023-04-14T08:03:57.031Z,9.75
2023-04-14T08:06:23.817Z,9.87
2023-04-14T08:08:50.304Z,9.93
2023-04-14T08:11:16.734Z,9.90
2023-04-14T08:13:43.354Z,9.93
2023-04-14T08:16:11.243Z,10.10
2023-04-14T08:18:39.828Z,10.18
2023-04-14T08:21:06.731Z,10.21
2023-04-14T08:23:33.810Z,10.40
2023-04-14T08:26:00.425Z,10.54
2023-04-14T08:28:28.669Z,10.60
2023-04-14T08:30:55.353Z,10.62
2023-04-14T08:33:21.813Z,10.78
2023-04-14T08:35:48.970Z,10.88
2023-04-14T08:38:26.126Z,10.92
2023-04-14T08:40:56.421Z,11.00
2023-04-14T08:43:23.430Z,11.01
2023-04-14T08:45:53.247Z,11.10
2023-04-14T08:48:20.784Z,11.16
2023-04-14T08:51:08.204Z,11.20
2023-04-14T08:53:42.731Z,11.20
2023-04-14T08:56:12.025Z,11.33
2023-04-14T08:58:38.887Z,11.28
2023-04-14T09:01:05.770Z,11.13
2023-04-14T09:03:33.274Z,11.30
2023-04-14T09:06:00.652Z,11.48
2023-04-14T09:08:27.833Z,11.69
2023-04-14T09:10:54.669Z,11.71
2023-04-14T09:13:22.902Z,11.87
2023-04-14T09:15:51.104Z,11.88
2023-04-14T09:18:17.556Z,11.84
2023-04-14T09:20:47.653Z,11.86
2023-04-14T09:23:34.073Z,11.92
2023-04-14T09:26:01.261Z,11.98
2023-04-14T09:28:27.693Z,12.06
2023-04-14T09:30:56.304Z,12.07
2023-04-14T09:33:23.338Z,12.10
2023-04-14T09:35:51.814Z,12.17
2023-04-14T09:38:34.639Z,12.14
2023-04-14T09:41:01.463Z,12.23
2023-04-14T09:43:29.272Z,12.37
2023-04-14T09:45:57.736Z,12.31
2023-04-14T09:48:24.970Z,12.25
2023-04-14T09:50:59.450Z,12.23
2023-04-14T09:53:27.755Z,12.48
2023-04-14T09:55:54.368Z,12.86
2023-04-14T09:58:27.298Z,13.06
2023-04-14T10:00:55.853Z,13.23
2023-04-14T10:03:41.733Z,13.48
2023-04-14T10:06:10.775Z,13.67
2023-04-14T10:08:39.810Z,13.78
2023-04-14T10:11:18.342Z,13.53
2023-04-14T10:13:46.672Z,13.40
2023-04-14T10:16:13.466Z,13.28
2023-04-14T10:18:40.410Z,12.70
2023-04-14T10:21:07.853Z,12.25
2023-04-14T10:23:38.167Z,12.38
2023-04-14T10:26:07.447Z,13.00
2023-04-14T10:28:38.027Z,13.52
2023-04-14T10:31:07.190Z,13.83
2023-04-14T10:33:37.871Z,13.82
2023-04-14T10:36:04.824Z,13.32
2023-04-14T10:38:44.517Z,13.25
2023-04-14T10:41:11.793Z,13.31
2023-04-14T10:43:39.600Z,12.90
2023-04-14T10:46:09.211Z,12.63
2023-04-14T10:48:38.494Z,13.00
2023-04-14T10:51:09.891Z,13.17
2023-04-14T10:53:55.406Z,13.06
2023-04-14T10:56:23.905Z,13.03
2023-04-14T10:58:58.601Z,13.30
2023-04-14T11:01:32.725Z,13.68
2023-04-14T11:04:17.861Z,14.05
2023-04-14T11:06:50.944Z,14.15
2023-04-14T11:09:33.021Z,14.49
2023-04-14T11:12:23.398Z,14.53
2023-04-14T11:14:54.482Z,14.59
2023-04-14T11:17:24.298Z,14.61
2023-04-14T11:19:55.216Z,14.56
2023-04-14T11:22:55.037Z,14.67
2023-04-14T11:25:24.539Z,14.48
2023-04-14T11:27:52.151Z,14.18
2023-04-14T11:30:20.672Z,14.37
2023-04-14T11:32:52.525Z,14.20
2023-04-14T11:35:23.483Z,14.14
2023-04-14T11:37:56.261Z,14.55
2023-04-14T11:40:25.177Z,14.69
2023-04-14T11:42:54.138Z,14.99
2023-04-14T11:45:20.934Z,15.18
2023-04-14T11:48:01.115Z,15.50
2023-04-14T11:50:30.385Z,15.13
2023-04-14T11:52:59.705Z,14.68
2023-04-14T11:55:29.761Z,14.72
2023-04-14T11:57:57.257Z,15.01
2023-04-14T12:00:24.518Z,14.62
2023-04-14T12:02:51.551Z,14.88
2023-04-14T12:05:21.550Z,14.73
2023-04-14T12:07:49.171Z,14.24
2023-04-14T12:10:16.156Z,14.46
2023-04-14T12:12:42.653Z,14.93
2023-04-14T12:15:11.256Z,15.33
2023-04-14T12:17:38.472Z,15.71
2023-04-14T12:20:05.543Z,16.36
2023-04-14T12:22:32.394Z,16.38
2023-04-14T12:24:59.025Z,16.28
2023-04-14T12:27:25.756Z,16.02
2023-04-14T12:29:52.594Z,16.18
2023-04-14T12:32:19.159Z,16.35
2023-04-14T12:34:58.401Z,16.67
2023-04-14T12:37:28.650Z,16.85
2023-04-14T12:40:01.041Z,16.93
2023-04-14T12:42:30.325Z,16.86
2023-04-14T12:44:58.843Z,16.94
2023-04-14T12:47:33.419Z,16.75
2023-04-14T12:50:02.235Z,16.70
2023-04-14T12:52:39.272Z,16.97
2023-04-14T12:55:07.830Z,17.03
2023-04-14T12:57:35.014Z,16.29
2023-04-14T13:00:02.016Z,15.49
2023-04-14T13:02:30.076Z,14.73
2023-04-14T13:04:58.894Z,14.39
2023-04-14T13:07:25.348Z,14.62
2023-04-14T13:09:52.063Z,15.18
2023-04-14T13:12:18.671Z,15.56
2023-04-14T13:14:45.172Z,16.04
2023-04-14T13:17:11.588Z,16.51
2023-04-14T13:19:38.587Z,16.74
2023-04-14T13:22:05.402Z,16.91
2023-04-14T13:24:31.851Z,16.99
2023-04-14T13:26:58.264Z,16.95
2023-04-14T13:29:24.686Z,16.81
2023-04-14T13:31:51.274Z,16.90
2023-04-14T13:34:17.735Z,16.91
2023-04-14T13:36:45.614Z,16.98
2023-04-14T13:39:12.483Z,17.00
2023-04-14T13:41:38.980Z,16.88
2023-04-14T13:44:05.635Z,16.92
2023-04-14T13:46:40.588Z,16.63
2023-04-14T13:49:07.736Z,16.78
2023-04-14T13:51:34.490Z,17.03
2023-04-14T13:54:01.066Z,16.95
2023-04-14T13:56:27.526Z,16.97
2023-04-14T13:58:54.532Z,16.90
2023-04-14T14:01:21.095Z,16.98
2023-04-14T14:03:49.773Z,16.92
2023-04-14T14:06:17.204Z,16.86
2023-04-14T14:08:43.692Z,17.07
2023-04-14T14:11:10.620Z,17.25
2023-04-14T14:13:41.032Z,17.45
2023-04-14T14:16:09.150Z,17.55
2023-04-14T14:18:38.668Z,17.12
2023-04-14T14:21:05.236Z,16.98
2023-04-14T14:23:31.772Z,17.11
2023-04-14T14:25:58.228Z,17.22
2023-04-14T14:28:24.646Z,17.37
2023-04-14T14:30:51.354Z,17.60
2023-04-14T14:33:17.880Z,17.77
2023-04-14T14:35:44.464Z,17.93
2023-04-14T14:38:11.046Z,17.77
2023-04-14T14:40:37.747Z,17.36
2023-04-14T14:43:04.330Z,17.40
2023-04-14T14:45:32.948Z,17.50
2023-04-14T14:47:59.878Z,17.31
2023-04-14T14:50:26.334Z,17.11
2023-04-14T14:52:52.704Z,17.32
2023-04-14T14:55:19.230Z,17.37
2023-04-14T14:57:45.659Z,17.12
2023-04-14T15:00:12.534Z,17.26
2023-04-14T15:02:39.226Z,17.22
2023-04-14T15:05:07.227Z,16.98
2023-04-14T15:07:33.868Z,16.99
2023-04-14T15:10:01.549Z,16.91
2023-04-14T15:12:28.043Z,17.07
2023-04-14T15:14:54.476Z,17.14
2023-04-14T15:17:21.011Z,17.15
2023-04-14T15:19:48.152Z,16.82
2023-04-14T15:22:14.805Z,16.62
2023-04-14T15:24:41.242Z,16.59
2023-04-14T15:27:07.785Z,16.47
2023-04-14T15:29:34.189Z,16.32
2023-04-14T15:32:01.088Z,16.33
2023-04-14T15:34:27.885Z,16.47
2023-04-14T15:36:54.395Z,16.45
2023-04-14T15:39:20.889Z,16.46
2023-04-14T15:41:49.071Z,16.39
2023-04-14T15:44:15.498Z,16.30
2023-04-14T15:46:41.942Z,16.24
2023-04-14T15:49:08.485Z,16.16
2023-04-14T15:51:34.903Z,16.05
2023-04-14T15:54:02.019Z,16.02
2023-04-14T15:56:28.769Z,15.95
2023-04-14T15:58:55.327Z,15.84
2023-04-14T16:01:21.929Z,15.70
2023-04-14T16:03:50.439Z,15.60
2023-04-14T16:06:18.713Z,15.48
2023-04-14T16:08:45.079Z,15.39
2023-04-14T16:11:16.298Z,15.24
2023-04-14T16:13:43.980Z,15.10
2023-04-14T16:16:13.450Z,14.98
2023-04-14T16:18:39.904Z,14.89
2023-04-14T16:21:06.369Z,14.87
2023-04-14T16:23:32.831Z,14.85
2023-04-14T16:25:59.265Z,14.81
2023-04-14T16:28:25.804Z,14.78
2023-04-14T16:30:52.314Z,14.76
2023-04-14T16:33:18.975Z,14.76
2023-04-14T16:35:45.330Z,14.72
2023-04-14T16:38:12.259Z,14.68
2023-04-14T16:40:38.990Z,14.69
2023-04-14T16:43:05.387Z,14.66
2023-04-14T16:45:32.255Z,14.60
2023-04-14T16:47:59.320Z,14.57
2023-04-14T16:50:26.532Z,14.50
2023-04-14T16:52:55.218Z,14.45
2023-04-14T16:55:21.565Z,14.38
2023-04-14T16:57:48.002Z,14.35
2023-04-14T17:00:14.816Z,14.31
2023-04-14T17:02:41.589Z,14.27
2023-04-14T17:05:10.195Z,14.24
2023-04-14T17:07:36.997Z,14.19
2023-04-14T17:10:03.517Z,14.09
2023-04-14T17:12:29.936Z,14.03
2023-04-14T17:14:56.806Z,13.93
2023-04-14T17:17:23.331Z,13.86
2023-04-14T17:19:50.010Z,13.80
2023-04-14T17:22:16.600Z,13.76
2023-04-14T17:24:43.973Z,13.71
2023-04-14T17:27:10.350Z,13.65
2023-04-14T17:29:36.786Z,13.62
2023-04-14T17:32:03.803Z,13.59
2023-04-14T17:34:30.830Z,13.53
2023-04-14T17:36:57.393Z,13.45
2023-04-14T17:39:26.959Z,13.36
2023-04-14T17:41:58.136Z,13.27
2023-04-14T17:44:31.950Z,13.17
2023-04-14T17:47:03.279Z,13.10
2023-04-14T17:49:30.355Z,12.99
2023-04-14T17:51:57.133Z,12.88
2023-04-14T17:54:23.738Z,12.79
2023-04-14T17:56:50.446Z,12.75
2023-04-14T17:59:17.567Z,12.66
2023-04-14T18:01:44.093Z,12.61
2023-04-14T18:04:10.837Z,12.52
2023-04-14T18:06:37.370Z,12.48
2023-04-14T18:09:03.966Z,12.41
2023-04-14T18:11:30.482Z,12.32
2023-04-14T18:13:58.188Z,12.24
2023-04-14T18:16:25.014Z,12.17
2023-04-14T18:18:51.495Z,12.07
2023-04-14T18:21:17.932Z,11.99
2023-04-14T18:23:44.349Z,11.92
2023-04-14T18:28:40.577Z,11.76
2023-04-14T18:31:07.426Z,11.69
2023-04-14T18:33:33.976Z,11.62
2023-04-14T18:36:00.576Z,11.57
2023-04-14T18:38:28.304Z,11.52
2023-04-14T18:41:01.159Z,11.44
2023-04-14T18:43:28.187Z,11.39
2023-04-14T18:45:54.617Z,11.32
2023-04-14T18:48:21.008Z,11.28
2023-04-14T18:50:47.578Z,11.23
2023-04-14T18:53:14.742Z,11.19
2023-04-14T18:55:45.316Z,11.15
2023-04-14T18:58:12.980Z,11.09
2023-04-14T19:00:40.373Z,11.07
2023-04-14T19:03:08.557Z,11.02
2023-04-14T19:05:36.779Z,10.95
2023-04-14T19:08:04.245Z,10.92
2023-04-14T19:10:30.707Z,10.88
2023-04-14T19:12:57.308Z,10.82
2023-04-14T19:15:26.184Z,10.77
2023-04-14T19:17:52.548Z,10.74
2023-04-14T19:20:19.387Z,10.68
2023-04-14T19:22:45.821Z,10.65
2023-04-14T19:25:12.291Z,10.60
2023-04-14T19:27:41.737Z,10.56
2023-04-14T19:30:09.936Z,10.52
2023-04-14T19:32:36.757Z,10.48
2023-04-14T19:35:03.408Z,10.41
2023-04-14T19:37:29.744Z,10.36
2023-04-14T19:39:56.265Z,10.32
2023-04-14T19:42:22.612Z,10.30
2023-04-14T19:44:49.262Z,10.28
2023-04-14T19:47:15.657Z,10.24
2023-04-14T19:49:42.736Z,10.18
2023-04-14T19:52:09.326Z,10.12
2023-04-14T19:54:35.871Z,10.09
2023-04-14T19:57:02.340Z,10.06
2023-04-14T19:59:29.526Z,10.03
2023-04-14T20:01:56.225Z,9.98
2023-04-14T20:04:24.367Z,9.96
2023-04-14T20:06:50.959Z,9.94
2023-04-14T20:09:17.395Z,9.88
2023-04-14T20:11:43.758Z,9.88
2023-04-14T20:14:10.656Z,9.85
2023-04-14T20:16:38.538Z,9.83
2023-04-14T20:19:06.473Z,9.78
2023-04-14T20:21:33.645Z,9.71
2023-04-14T20:24:00.779Z,9.66
2023-04-14T20:26:27.573Z,9.60
2023-04-14T20:28:54.063Z,9.56
2023-04-14T20:31:22.122Z,9.54
2023-04-14T20:33:48.588Z,9.52
2023-04-14T20:36:16.198Z,9.50
2023-04-14T20:38:42.804Z,9.47
2023-04-14T20:41:09.412Z,9.45
2023-04-14T20:43:35.824Z,9.43
2023-04-14T20:46:04.065Z,9.39
2023-04-14T20:48:32.049Z,9.37
2023-04-14T20:50:59.594Z,9.31
2023-04-14T20:53:28.406Z,9.30
2023-04-14T20:55:54.996Z,9.27
2023-04-14T20:58:21.464Z,9.22
2023-04-14T21:00:47.899Z,9.19
2023-04-14T21:03:14.475Z,9.17
2023-04-14T21:05:41.236Z,9.13
2023-04-14T21:08:08.265Z,9.09
2023-04-14T21:10:35.594Z,9.01
2023-04-14T21:15:28.351Z,8.97
2023-04-14T21:16:09.378Z,8.96
2023-04-14T21:18:36.357Z,8.94
2023-04-14T21:21:04.954Z,8.91
2023-04-14T21:23:31.793Z,8.89
2023-04-14T21:25:59.835Z,8.81
2023-04-14T21:28:26.738Z,8.77
2023-04-14T21:31:00.293Z,8.77
2023-04-14T21:33:27.298Z,8.77
2023-04-14T21:35:57.273Z,8.75
2023-04-14T21:38:24.569Z,8.76
2023-04-14T21:40:51.498Z,8.76
2023-04-14T21:43:17.983Z,8.73
2023-04-14T21:45:44.916Z,8.66
2023-04-14T21:48:12.536Z,8.58
2023-04-14T21:50:39.700Z,8.53
2023-04-14T21:53:06.288Z,8.46
2023-04-14T21:55:32.942Z,8.44
2023-04-14T21:57:59.391Z,8.39
2023-04-14T22:00:26.712Z,8.38
2023-04-14T22:02:53.776Z,8.36
2023-04-14T22:05:20.379Z,8.32
2023-04-14T22:07:46.795Z,8.26
2023-04-14T22:10:13.299Z,8.23
2023-04-14T22:12:39.922Z,8.18
2023-04-14T22:15:08.580Z,8.17
2023-04-14T22:17:36.691Z,8.15
2023-04-14T22:20:05.882Z,8.12
2023-04-14T22:22:32.918Z,8.11
2023-04-14T22:24:59.276Z,8.08
2023-04-14T22:27:26.088Z,8.05
2023-04-14T22:29:52.527Z,8.01
2023-04-14T22:32:18.900Z,7.95
2023-04-14T22:34:45.722Z,7.89
2023-04-14T22:37:13.281Z,7.87
2023-04-14T22:39:40.545Z,7.83
2023-04-14T22:42:07.271Z,7.78
2023-04-14T22:44:33.705Z,7.76
2023-04-14T22:47:00.888Z,7.74
2023-04-14T22:49:27.566Z,7.69
2023-04-14T22:51:53.985Z,7.72
2023-04-14T22:54:20.672Z,7.73
2023-04-14T22:56:48.057Z,7.68
2023-04-14T22:59:14.720Z,7.66
2023-04-14T23:01:41.225Z,7.64
2023-04-14T23:04:08.125Z,7.59
2023-04-14T23:06:34.665Z,7.56
2023-04-14T23:09:01.330Z,7.54
2023-04-14T23:11:28.146Z,7.53
2023-04-14T23:13:54.502Z,7.52
2023-04-14T23:16:21.135Z,7.47
2023-04-14T23:18:51.732Z,7.42
2023-04-14T23:21:24.849Z,7.39
2023-04-14T23:23:51.669Z,7.37
2023-04-14T23:26:19.758Z,7.32
2023-04-14T23:28:46.758Z,7.33
2023-04-14T23:31:13.464Z,7.29
2023-04-14T23:33:40.190Z,7.26
2023-04-14T23:36:07.561Z,7.23
2023-04-14T23:38:33.982Z,7.24
2023-04-14T23:41:00.368Z,7.22
2023-04-14T23:43:28.352Z,7.18
2023-04-14T23:45:55.583Z,7.17
2023-04-14T23:48:22.209Z,7.18
2023-04-14T23:50:59.710Z,7.19
2023-04-14T23:53:32.457Z,7.21
2023-04-14T23:55:59.062Z,7.17
2023-04-14T23:58:28.031Z,7.14
